createdAt,value
2024-01-10T00:01:17.467Z,102817.78
2024-01-10T00:03:49.718Z,102826.44
2024-01-10T00:06:21.968Z,102821.84
2024-01-10T00:08:54.002Z,102829.72
2024-01-10T00:11:26.137Z,102805.69
2024-01-10T00:14:01.057Z,102821.28
2024-01-10T00:16:33.421Z,102812.81
2024-01-10T00:19:05.457Z,102802.94
2024-01-10T00:21:37.601Z,102796.31
2024-01-10T00:24:09.560Z,102803.84
2024-01-10T00:26:41.556Z,102802.94
2024-01-10T00:29:13.673Z,102807.34
2024-01-10T00:31:46.064Z,102801.28
2024-01-10T00:34:18.121Z,102794.47
2024-01-10T00:36:50.090Z,102800.31
2024-01-10T00:39:22.086Z,102803.06
2024-01-10T00:41:54.093Z,102800.66
2024-01-10T00:44:26.200Z,102799.38
2024-01-10T00:46:58.505Z,102798.44
2024-01-10T00:49:30.459Z,102801.94
2024-01-10T00:52:02.561Z,102795.88
2024-01-10T00:54:34.524Z,102802.50
2024-01-10T00:57:06.492Z,102803.97
2024-01-10T00:59:38.423Z,102799.00
2024-01-10T01:02:10.416Z,102799.59
2024-01-10T01:04:42.602Z,102794.81
2024-01-10T01:07:14.827Z,102797.06
2024-01-10T01:09:46.958Z,102794.13
2024-01-10T01:12:19.075Z,102798.88
2024-01-10T01:14:51.009Z,102796.31
2024-01-10T01:17:23.053Z,102791.00
2024-01-10T01:19:55.567Z,102796.72
2024-01-10T01:22:27.882Z,102792.31
2024-01-10T01:24:59.858Z,102793.03
2024-01-10T01:27:31.871Z,102783.53
2024-01-10T01:30:04.755Z,102789.03
2024-01-10T01:32:36.922Z,102793.44
2024-01-10T01:35:09.149Z,102785.69
2024-01-10T01:37:41.165Z,102783.88
2024-01-10T01:40:13.460Z,102785.34
2024-01-10T01:42:46.947Z,102789.19
2024-01-10T01:45:18.895Z,102787.19
2024-01-10T01:47:51.542Z,102782.25
2024-01-10T01:50:23.619Z,102787.94
2024-01-10T01:52:55.632Z,102788.69
2024-01-10T01:55:27.716Z,102780.56
2024-01-10T01:57:59.834Z,102780.56
2024-01-10T02:00:32.565Z,102776.31
2024-01-10T02:03:07.987Z,102771.03
2024-01-10T02:05:41.057Z,102777.13
2024-01-10T02:08:13.092Z,102773.25
2024-01-10T02:10:45.175Z,102763.28
2024-01-10T02:13:18.664Z,102780.19
2024-01-10T02:15:50.576Z,102769.91
2024-01-10T02:18:22.611Z,102768.09
2024-01-10T02:20:54.650Z,102770.81
2024-01-10T02:23:26.810Z,102771.56
2024-01-10T02:25:59.131Z,102773.25
2024-01-10T02:28:31.144Z,102778.41
2024-01-10T02:31:04.204Z,102770.28
2024-01-10T02:33:36.234Z,102765.91
2024-01-10T02:36:08.294Z,102766.06
2024-01-10T02:38:40.267Z,102767.72
2024-01-10T02:41:12.645Z,102768.84
2024-01-10T02:43:44.698Z,102751.22
2024-01-10T02:46:16.754Z,102757.47
2024-01-10T02:48:48.805Z,102753.06
2024-01-10T02:51:20.781Z,102753.63
2024-01-10T02:53:52.760Z,102745.19
2024-01-10T02:56:24.879Z,102750.88
2024-01-10T02:58:56.908Z,102752.13
2024-01-10T03:01:29.143Z,102746.25
2024-01-10T03:04:01.174Z,102756.72
2024-01-10T03:06:33.306Z,102741.84
2024-01-10T03:09:05.374Z,102727.38
2024-01-10T03:11:37.412Z,102746.78
2024-01-10T03:14:11.740Z,102739.06
2024-01-10T03:16:43.726Z,102735.78
2024-01-10T03:19:16.482Z,102739.06
2024-01-10T03:21:48.657Z,102732.66
2024-01-10T03:24:20.815Z,102725.16
2024-01-10T03:26:52.713Z,102729.56
2024-01-10T03:29:24.715Z,102726.81
2024-01-10T03:31:56.795Z,102725.88
2024-01-10T03:34:28.765Z,102728.88
2024-01-10T03:37:00.690Z,102717.09
2024-01-10T03:39:32.922Z,102718.16
2024-01-10T03:42:05.060Z,102720.75
2024-01-10T03:44:37.629Z,102719.84
2024-01-10T03:47:09.765Z,102711.56
2024-01-10T03:49:41.770Z,102715.06
2024-01-10T03:52:13.735Z,102712.13
2024-01-10T03:54:45.689Z,102706.06
2024-01-10T03:57:17.666Z,102703.50
2024-01-10T03:59:49.632Z,102707.00
2024-01-10T04:02:21.662Z,102704.94
2024-01-10T04:04:53.672Z,102711.03
2024-01-10T04:07:28.542Z,102702.97
2024-01-10T04:10:01.788Z,102699.47
2024-01-10T04:12:33.794Z,102698.00
2024-01-10T04:15:06.938Z,102695.41
2024-01-10T04:17:39.528Z,102681.31
2024-01-10T04:20:11.994Z,102693.56
2024-01-10T04:22:44.099Z,102696.16
2024-01-10T04:25:16.091Z,102688.09
2024-01-10T04:27:48.091Z,102699.47
2024-01-10T04:30:20.134Z,102695.03
2024-01-10T04:32:52.160Z,102689.16
2024-01-10T04:35:24.231Z,102682.94
2024-01-10T04:37:56.166Z,102696.16
2024-01-10T04:40:28.164Z,102692.84
2024-01-10T04:43:00.122Z,102696.50
2024-01-10T04:45:32.086Z,102695.22
2024-01-10T04:48:04.428Z,102691.75
2024-01-10T04:50:37.197Z,102689.53
2024-01-10T04:53:09.344Z,102678.91
2024-01-10T04:55:41.329Z,102687.34
2024-01-10T04:58:13.407Z,102679.63
2024-01-10T05:00:45.385Z,102685.94
2024-01-10T05:03:17.434Z,102681.50
2024-01-10T05:05:49.614Z,102670.13
2024-01-10T05:08:22.331Z,102684.09
2024-01-10T05:10:54.782Z,102682.28
2024-01-10T05:13:26.755Z,102666.09
2024-01-10T05:15:59.399Z,102676.94
2024-01-10T05:18:31.397Z,102686.34
2024-01-10T05:21:05.103Z,102680.47
2024-01-10T05:23:39.795Z,102676.44
2024-01-10T05:26:12.017Z,102684.16
2024-01-10T05:28:44.052Z,102687.13
2024-01-10T05:31:16.336Z,102688.03
2024-01-10T05:33:48.332Z,102677.00
2024-01-10T05:36:24.322Z,102670.22
2024-01-10T05:38:56.232Z,102683.06
2024-01-10T05:41:28.412Z,102681.59
2024-01-10T05:44:00.471Z,102661.97
2024-01-10T05:46:32.415Z,102692.09
2024-01-10T05:49:05.711Z,102693.00
2024-01-10T05:51:38.955Z,102688.59
2024-01-10T05:54:11.089Z,102686.03
2024-01-10T05:56:43.097Z,102684.03
2024-01-10T05:59:17.924Z,102686.94
2024-01-10T06:01:50.643Z,102678.50
2024-01-10T06:04:22.655Z,102679.44
2024-01-10T06:06:54.618Z,102683.09
2024-01-10T06:09:26.732Z,102683.47
2024-01-10T06:11:58.807Z,102671.38
2024-01-10T06:14:30.735Z,102682.03
2024-01-10T06:17:04.969Z,102674.31
2024-01-10T06:19:36.973Z,102672.47
2024-01-10T06:22:09.012Z,102675.25
2024-01-10T06:24:42.193Z,102667.72
2024-01-10T06:27:14.176Z,102672.84
2024-01-10T06:29:46.403Z,102671.22
2024-01-10T06:32:18.484Z,102676.22
2024-01-10T06:34:50.530Z,102676.22
2024-01-10T06:37:22.554Z,102684.81
2024-01-10T06:39:54.524Z,102689.41
2024-01-10T06:42:27.553Z,102682.63
2024-01-10T06:44:59.505Z,102678.22
2024-01-10T06:47:31.538Z,102669.97
2024-01-10T06:50:03.759Z,102682.81
2024-01-10T06:52:35.795Z,102681.34
2024-01-10T06:55:09.195Z,102679.16
2024-01-10T06:57:41.266Z,102680.06
2024-01-10T07:00:14.886Z,102682.81
2024-01-10T07:02:46.842Z,102671.78
2024-01-10T07:05:19.009Z,102678.94
2024-01-10T07:07:51.302Z,102690.50
2024-01-10T07:10:27.157Z,102691.41
2024-01-10T07:12:59.381Z,102685.72
2024-01-10T07:15:32.082Z,102685.91
2024-01-10T07:18:05.303Z,102688.66
2024-01-10T07:20:38.928Z,102685.34
2024-01-10T07:23:11.495Z,102668.84
2024-01-10T07:25:43.628Z,102673.75
2024-01-10T07:28:15.603Z,102669.00
2024-01-10T07:30:48.488Z,102665.16
2024-01-10T07:33:21.549Z,102675.44
2024-01-10T07:35:54.177Z,102682.41
2024-01-10T07:38:26.363Z,102671.78
2024-01-10T07:41:00.519Z,102679.66
2024-01-10T07:43:32.702Z,102665.53
2024-01-10T07:46:04.698Z,102673.06
2024-01-10T07:48:37.290Z,102662.44
2024-01-10T07:51:09.336Z,102663.91
2024-01-10T07:53:41.412Z,102671.59
2024-01-10T07:56:15.237Z,102670.53
2024-01-10T07:58:47.282Z,102674.38
2024-01-10T08:01:19.727Z,102677.53
2024-01-10T08:03:51.807Z,102680.63
2024-01-10T08:06:29.790Z,102683.59
2024-01-10T08:09:05.740Z,102685.41
2024-01-10T08:11:39.388Z,102681.00
2024-01-10T08:14:11.359Z,102689.81
2024-01-10T08:16:44.756Z,102686.16
2024-01-10T08:19:17.731Z,102690.72
2024-01-10T08:21:50.060Z,102694.56
2024-01-10T08:24:22.213Z,102694.75
2024-01-10T08:26:55.129Z,102689.44
2024-01-10T08:29:31.644Z,102691.63
2024-01-10T08:32:05.223Z,102696.00
2024-01-10T08:34:37.289Z,102694.34
2024-01-10T08:37:10.176Z,102691.63
2024-01-10T08:39:44.075Z,102699.69
2024-01-10T08:42:16.067Z,102698.94
2024-01-10T08:44:48.074Z,102695.06
2024-01-10T08:47:21.213Z,102698.75
2024-01-10T08:49:53.564Z,102697.28
2024-01-10T08:52:25.660Z,102708.47
2024-01-10T08:54:57.843Z,102699.25
2024-01-10T08:57:31.029Z,102702.34
2024-01-10T09:00:07.382Z,102694.72
2024-01-10T09:02:40.278Z,102691.94
2024-01-10T09:05:12.785Z,102694.59
2024-01-10T09:07:45.052Z,102691.53
2024-01-10T09:10:17.556Z,102697.34
2024-01-10T09:12:50.456Z,102698.44
2024-01-10T09:15:22.429Z,102693.69
2024-01-10T09:17:54.589Z,102690.06
2024-01-10T09:20:26.717Z,102687.19
2024-01-10T09:23:01.250Z,102700.69
2024-01-10T09:25:33.337Z,102703.19
2024-01-10T09:28:08.660Z,102692.09
2024-01-10T09:30:42.670Z,102700.03
2024-01-10T09:33:15.315Z,102702.22
2024-01-10T09:35:47.380Z,102706.06
2024-01-10T09:38:19.390Z,102704.47
2024-01-10T09:40:56.276Z,102704.72
2024-01-10T09:43:31.053Z,102689.88
2024-01-10T09:46:03.912Z,102700.50
2024-01-10T09:48:36.096Z,102704.41
2024-01-10T09:51:09.111Z,102705.41
2024-01-10T09:53:51.208Z,102698.84
2024-01-10T09:56:23.342Z,102710.53
2024-01-10T09:58:59.881Z,102700.28
2024-01-10T10:01:33.350Z,102709.53
2024-01-10T10:04:06.967Z,102700.09
2024-01-10T10:06:39.489Z,102705.28
2024-01-10T10:09:13.228Z,102700.81
2024-01-10T10:11:45.208Z,102704.75
2024-01-10T10:14:20.033Z,102703.97
2024-01-10T10:16:52.220Z,102710.66
2024-01-10T10:19:34.454Z,102701.66
2024-01-10T10:22:12.670Z,102697.19
2024-01-10T10:24:50.078Z,102699.22
2024-01-10T10:27:22.886Z,102700.78
2024-01-10T10:29:55.039Z,102690.38
2024-01-10T10:32:27.009Z,102683.22
2024-01-10T10:34:59.230Z,102691.41
2024-01-10T10:37:31.190Z,102677.19
2024-01-10T10:40:03.740Z,102677.53
2024-01-10T10:42:40.092Z,102663.00
2024-01-10T10:45:19.056Z,102665.44
2024-01-10T10:47:57.910Z,102666.50
2024-01-10T10:50:35.771Z,102661.97
2024-01-10T10:53:09.198Z,102662.72
2024-01-10T10:55:43.188Z,102659.50
2024-01-10T10:58:16.349Z,102660.53
2024-01-10T11:00:50.255Z,102650.78
2024-01-10T11:03:22.947Z,102657.88
2024-01-10T11:05:55.753Z,102655.00
2024-01-10T11:08:30.252Z,102655.41
2024-01-10T11:11:06.975Z,102656.84
2024-01-10T11:13:56.965Z,102657.84
2024-01-10T11:16:48.129Z,102653.53
2024-01-10T11:19:59.884Z,102661.50
2024-01-10T11:22:54.619Z,102654.44
2024-01-10T11:25:31.289Z,102648.34
2024-01-10T11:28:07.239Z,102641.97
2024-01-10T11:30:53.619Z,102635.16
2024-01-10T11:33:42.072Z,102631.28
2024-01-10T11:36:25.712Z,102630.69
2024-01-10T11:39:05.748Z,102622.44
2024-01-10T11:41:42.019Z,102619.78
2024-01-10T11:44:19.117Z,102625.97
2024-01-10T11:46:54.608Z,102617.66
2024-01-10T11:49:27.846Z,102617.66
2024-01-10T11:52:02.055Z,102612.06
2024-01-10T11:54:46.529Z,102610.16
2024-01-10T11:57:18.647Z,102616.50
2024-01-10T11:59:55.974Z,102605.44
2024-01-10T12:02:29.311Z,102606.50
2024-01-10T12:05:01.518Z,102608.75
2024-01-10T12:07:33.676Z,102603.53
2024-01-10T12:10:06.557Z,102608.09
2024-01-10T12:12:38.551Z,102599.22
2024-01-10T12:15:12.936Z,102600.69
2024-01-10T12:17:45.716Z,102601.50
2024-01-10T12:20:18.193Z,102596.34
2024-01-10T12:22:50.212Z,102589.41
2024-01-10T12:25:22.180Z,102594.19
2024-01-10T12:27:54.142Z,102585.22
2024-01-10T12:30:27.236Z,102592.38
2024-01-10T12:33:02.849Z,102592.34
2024-01-10T12:35:34.889Z,102585.41
2024-01-10T12:38:07.052Z,102579.88
2024-01-10T12:40:39.192Z,102594.06
2024-01-10T12:43:13.900Z,102589.06
2024-01-10T12:45:47.117Z,102579.88
2024-01-10T12:48:19.133Z,102580.53
2024-01-10T12:50:51.135Z,102585.47
2024-01-10T12:53:23.276Z,102588.19
2024-01-10T12:55:56.851Z,102587.47
2024-01-10T12:58:30.282Z,102584.28
2024-01-10T13:01:06.174Z,102577.47
2024-01-10T13:03:38.972Z,102577.63
2024-01-10T13:06:11.419Z,102590.53
2024-01-10T13:08:43.894Z,102579.63
2024-01-10T13:11:16.356Z,102587.34
2024-01-10T13:13:48.326Z,102588.28
2024-01-10T13:16:20.284Z,102587.47
2024-01-10T13:18:52.415Z,102588.53
2024-01-10T13:21:24.552Z,102584.44
2024-01-10T13:23:56.674Z,102581.88
2024-01-10T13:26:28.734Z,102574.53
2024-01-10T13:29:00.784Z,102577.56
2024-01-10T13:31:32.765Z,102581.72
2024-01-10T13:34:05.604Z,102584.00
2024-01-10T13:36:37.630Z,102585.28
2024-01-10T13:39:09.579Z,102577.63
2024-01-10T13:41:41.738Z,102583.13
2024-01-10T13:44:13.917Z,102586.00
2024-01-10T13:46:46.269Z,102585.78
2024-01-10T13:49:19.094Z,102589.09
2024-01-10T13:51:51.074Z,102580.31
2024-01-10T13:54:23.080Z,102574.94
2024-01-10T13:56:55.025Z,102586.72
2024-01-10T13:59:27.030Z,102595.78
2024-01-10T14:02:00.498Z,102593.03
2024-01-10T14:04:32.529Z,102598.09
2024-01-10T14:07:05.341Z,102610.22
2024-01-10T14:09:37.440Z,102609.59
2024-01-10T14:12:09.435Z,102603.41
2024-01-10T14:14:41.465Z,102617.88
2024-01-10T14:17:13.489Z,102615.66
2024-01-10T14:19:45.512Z,102615.34
2024-01-10T14:22:28.468Z,102609.00
2024-01-10T14:25:03.982Z,102607.34
2024-01-10T14:27:36.368Z,102607.25
2024-01-10T14:30:09.948Z,102612.78
2024-01-10T14:32:42.412Z,102619.88
2024-01-10T14:35:14.977Z,102606.19
2024-01-10T14:37:47.243Z,102596.22
2024-01-10T14:40:19.304Z,102606.31
2024-01-10T14:42:51.640Z,102606.69
2024-01-10T14:45:23.762Z,102606.91
2024-01-10T14:47:55.950Z,102605.69
2024-01-10T14:50:28.002Z,102583.66
2024-01-10T14:53:00.143Z,102610.47
2024-01-10T14:55:32.215Z,102614.41
2024-01-10T14:58:04.842Z,102600.06
2024-01-10T15:00:36.858Z,102615.66
2024-01-10T15:03:16.210Z,102613.34
2024-01-10T15:05:56.304Z,102607.25
2024-01-10T15:08:28.507Z,102616.44
2024-01-10T15:11:00.941Z,102623.16
2024-01-10T15:13:33.002Z,102617.41
2024-01-10T15:16:05.405Z,102625.84
2024-01-10T15:18:37.819Z,102618.38
2024-01-10T15:21:09.818Z,102624.16
2024-01-10T15:23:43.171Z,102627.34
2024-01-10T15:26:22.065Z,102620.03
2024-01-10T15:29:05.397Z,102632.28
2024-01-10T15:31:37.787Z,102620.03
2024-01-10T15:34:10.644Z,102628.47
2024-01-10T15:36:43.496Z,102627.22
2024-01-10T15:39:15.549Z,102639.94
2024-01-10T15:41:52.393Z,102638.22
2024-01-10T15:44:24.484Z,102629.84
2024-01-10T15:46:58.825Z,102637.34
2024-01-10T15:49:30.871Z,102643.00
2024-01-10T15:52:03.025Z,102635.41
2024-01-10T15:54:38.916Z,102643.97
2024-01-10T15:57:10.956Z,102637.84
2024-01-10T15:59:42.903Z,102639.53
2024-01-10T16:02:15.003Z,102645.22
2024-01-10T16:04:47.541Z,102643.84
2024-01-10T16:07:19.564Z,102651.06
2024-01-10T16:09:51.628Z,102648.03
2024-01-10T16:12:24.546Z,102644.69
2024-01-10T16:14:56.552Z,102646.81
2024-01-10T16:17:28.614Z,102642.41
2024-01-10T16:20:00.692Z,102649.41
2024-01-10T16:22:36.221Z,102646.72
2024-01-10T16:25:08.604Z,102651.19
2024-01-10T16:27:40.534Z,102660.88
2024-01-10T16:30:13.338Z,102651.25
2024-01-10T16:32:45.418Z,102659.78
2024-01-10T16:35:17.539Z,102662.09
2024-01-10T16:37:49.636Z,102670.81
2024-01-10T16:40:21.750Z,102674.94
2024-01-10T16:42:53.763Z,102671.91
2024-01-10T16:45:26.932Z,102673.13
2024-01-10T16:47:59.093Z,102674.66
2024-01-10T16:50:32.185Z,102671.59
2024-01-10T16:53:04.873Z,102681.53
2024-01-10T16:55:37.560Z,102682.44
2024-01-10T16:58:09.950Z,102656.56
2024-01-10T17:00:41.985Z,102671.34
2024-01-10T17:03:14.055Z,102692.53
2024-01-10T17:05:47.277Z,102689.66
2024-01-10T17:08:19.595Z,102690.88
2024-01-10T17:10:51.660Z,102690.88
2024-01-10T17:13:24.614Z,102690.56
2024-01-10T17:15:56.602Z,102690.28
2024-01-10T17:18:29.560Z,102696.09
2024-01-10T17:21:01.611Z,102690.63
2024-01-10T17:23:33.662Z,102685.25
2024-01-10T17:26:05.969Z,102696.69
2024-01-10T17:28:37.926Z,102700.53
2024-01-10T17:31:09.915Z,102694.88
2024-01-10T17:33:42.102Z,102706.91
2024-01-10T17:36:14.193Z,102706.16
2024-01-10T17:38:46.538Z,102715.31
2024-01-10T17:41:19.669Z,102709.84
2024-01-10T17:43:53.142Z,102715.94
2024-01-10T17:46:25.245Z,102717.63
2024-01-10T17:48:57.476Z,102716.56
2024-01-10T17:51:29.619Z,102726.94
2024-01-10T17:54:02.108Z,102724.19
2024-01-10T17:56:35.390Z,102729.34
2024-01-10T17:59:07.479Z,102733.16
2024-01-10T18:01:40.147Z,102732.72
2024-01-10T18:04:14.800Z,102730.13
2024-01-10T18:06:47.322Z,102736.69
2024-01-10T18:09:19.342Z,102733.63
2024-01-10T18:11:52.321Z,102740.50
2024-01-10T18:14:24.382Z,102737.75
2024-01-10T18:16:56.447Z,102738.50
2024-01-10T18:19:28.691Z,102746.47
2024-01-10T18:22:00.756Z,102745.81
2024-01-10T18:24:32.765Z,102754.69
2024-01-10T18:27:05.041Z,102752.22
2024-01-10T18:29:37.011Z,102735.78
2024-01-10T18:32:09.129Z,102751.31
2024-01-10T18:34:41.235Z,102744.91
2024-01-10T18:37:13.297Z,102760.44
2024-01-10T18:39:45.583Z,102754.03
2024-01-10T18:42:17.562Z,102749.47
2024-01-10T18:44:49.496Z,102763.94
2024-01-10T18:47:23.258Z,102757.38
2024-01-10T18:49:55.992Z,102753.41
2024-01-10T18:52:28.370Z,102762.09
2024-01-10T18:55:00.346Z,102764.38
2024-01-10T18:57:32.434Z,102766.84
2024-01-10T19:00:10.569Z,102764.69
2024-01-10T19:02:42.587Z,102762.84
2024-01-10T19:05:17.516Z,102780.66
2024-01-10T19:07:53.421Z,102782.94
2024-01-10T19:10:26.963Z,102785.53
2024-01-10T19:12:59.129Z,102789.94
2024-01-10T19:15:33.273Z,102780.97
2024-01-10T19:18:05.659Z,102780.63
2024-01-10T19:20:37.887Z,102784.44
2024-01-10T19:23:10.063Z,102781.22
2024-01-10T19:25:42.195Z,102784.91
2024-01-10T19:28:14.295Z,102782.75
2024-01-10T19:30:46.380Z,102789.75
2024-01-10T19:33:18.649Z,102784.44
2024-01-10T19:35:51.299Z,102786.53
2024-01-10T19:38:23.334Z,102789.28
2024-01-10T19:40:55.331Z,102787.13
2024-01-10T19:43:28.666Z,102791.25
2024-01-10T19:46:00.686Z,102786.50
2024-01-10T19:48:35.996Z,102793.97
2024-01-10T19:51:08.555Z,102790.88
2024-01-10T19:53:40.791Z,102799.41
2024-01-10T19:56:12.856Z,102792.06
2024-01-10T19:58:46.257Z,102794.09
2024-01-10T20:01:19.921Z,102797.41
2024-01-10T20:03:52.426Z,102803.03
2024-01-10T20:06:24.706Z,102802.88
2024-01-10T20:08:56.793Z,102805.28
2024-01-10T20:11:28.897Z,102814.41
2024-01-10T20:14:00.941Z,102819.28
2024-01-10T20:16:32.940Z,102820.00
2024-01-10T20:19:05.231Z,102808.72
2024-01-10T20:21:38.155Z,102817.53
2024-01-10T20:24:10.105Z,102807.63
2024-01-10T20:26:42.173Z,102824.38
2024-01-10T20:29:14.270Z,102823.72
2024-01-10T20:31:46.288Z,102831.91
2024-01-10T20:34:18.447Z,102831.03
2024-01-10T20:36:50.489Z,102838.44
2024-01-10T20:39:22.416Z,102836.31
2024-01-10T20:41:55.040Z,102838.53
2024-01-10T20:44:27.075Z,102830.56
2024-01-10T20:46:59.196Z,102840.47
2024-01-10T20:49:32.723Z,102842.50
2024-01-10T20:52:05.566Z,102856.31
2024-01-10T20:54:39.493Z,102843.38
2024-01-10T20:57:12.665Z,102846.44
2024-01-10T20:59:44.645Z,102847.31
2024-01-10T21:02:16.761Z,102860.09
2024-01-10T21:04:48.844Z,102857.59
2024-01-10T21:07:21.063Z,102852.13
2024-01-10T21:09:53.162Z,102859.22
2024-01-10T21:12:25.224Z,102863.28
2024-01-10T21:14:58.576Z,102850.22
2024-01-10T21:17:31.437Z,102851.56
2024-01-10T21:20:03.649Z,102859.72
2024-01-10T21:22:36.542Z,102856.97
2024-01-10T21:25:09.002Z,102856.81
2024-01-10T21:27:41.508Z,102858.88
2024-01-10T21:30:14.933Z,102862.22
2024-01-10T21:32:46.990Z,102869.81
2024-01-10T21:35:18.979Z,102865.81
2024-01-10T21:37:50.990Z,102871.75
2024-01-10T21:40:23.014Z,102876.22
2024-01-10T21:42:55.048Z,102885.06
2024-01-10T21:45:26.964Z,102886.22
2024-01-10T21:47:59.019Z,102892.13
2024-01-10T21:50:31.279Z,102893.97
2024-01-10T21:53:03.446Z,102889.53
2024-01-10T21:55:36.022Z,102890.31
2024-01-10T21:58:08.010Z,102897.66
2024-01-10T22:00:39.970Z,102893.63
2024-01-10T22:03:20.995Z,102899.13
2024-01-10T22:05:57.403Z,102886.88
2024-01-10T22:08:29.538Z,102898.81
2024-01-10T22:11:01.589Z,102901.31
2024-01-10T22:13:33.751Z,102912.38
2024-01-10T22:16:07.618Z,102908.88
2024-01-10T22:18:39.823Z,102907.03
2024-01-10T22:21:11.907Z,102895.44
2024-01-10T22:23:43.869Z,102908.88
2024-01-10T22:26:15.964Z,102920.28
2024-01-10T22:28:48.074Z,102912.38
2024-01-10T22:31:20.025Z,102919.94
2024-01-10T22:33:52.063Z,102916.16
2024-01-10T22:36:24.103Z,102926.09
2024-01-10T22:38:56.396Z,102924.69
2024-01-10T22:41:28.377Z,102934.63
2024-01-10T22:44:00.429Z,102934.44
2024-01-10T22:46:32.681Z,102940.34
2024-01-10T22:49:04.650Z,102942.00
2024-01-10T22:51:36.654Z,102924.91
2024-01-10T22:54:08.809Z,102933.34
2024-01-10T22:56:41.070Z,102941.09
2024-01-10T22:59:13.146Z,102931.66
2024-01-10T23:01:45.143Z,102932.25
2024-01-10T23:04:17.107Z,102941.66
2024-01-10T23:06:49.945Z,102931.50
2024-01-10T23:09:21.897Z,102942.00
2024-01-10T23:11:54.879Z,102938.53
2024-01-10T23:14:26.819Z,102943.69
2024-01-10T23:16:58.873Z,102942.91
2024-01-10T23:19:31.117Z,102944.41
2024-01-10T23:22:03.635Z,102931.56
2024-01-10T23:24:35.611Z,102941.66
2024-01-10T23:27:07.549Z,102940.25
2024-01-10T23:29:40.094Z,102948.56
2024-01-10T23:32:12.055Z,102958.91
2024-01-10T23:34:45.012Z,102951.88
2024-01-10T23:37:17.021Z,102944.53
2024-01-10T23:39:49.008Z,102954.53
2024-01-10T23:42:21.048Z,102944.19
2024-01-10T23:44:52.992Z,102951.22
2024-01-10T23:47:25.087Z,102949.94
2024-01-10T23:49:57.152Z,102944.19
2024-01-10T23:52:29.140Z,102944.94
2024-01-10T23:55:01.082Z,102944.19
2024-01-10T23:57:33.137Z,102947.19
